sensor_id;sensor_type;location;lat;lon;timestamp;pressure;altitude;pressure_sealevel;temperature;humidity
69411;BME280;56604;48.652;9.194;2022-10-28T00:00:21;97083.56;;;15.35;72.26
69411;BME280;56604;48.652;9.194;2022-10-28T00:02:46;97075.88;;;15.34;72.67
69411;BME280;56604;48.652;9.194;2022-10-28T00:05:12;97072.97;;;15.35;72.33
69411;BME280;56604;48.652;9.194;2022-10-28T00:07:37;97070.06;;;15.42;72.65
69411;BME280;56604;48.652;9.194;2022-10-28T00:10:03;97073.25;;;15.39;72.38
69411;BME280;56604;48.652;9.194;2022-10-28T00:12:28;97067.41;;;15.42;71.85
69411;BME280;56604;48.652;9.194;2022-10-28T00:14:53;97073.50;;;15.42;72.01
69411;BME280;56604;48.652;9.194;2022-10-28T00:17:19;97060.50;;;15.36;72.15
69411;BME280;56604;48.652;9.194;2022-10-28T00:19:44;97062.91;;;15.37;72.13
69411;BME280;56604;48.652;9.194;2022-10-28T00:22:09;97062.13;;;15.42;72.09
69411;BME280;56604;48.652;9.194;2022-10-28T00:24:35;97062.66;;;15.44;71.82
69411;BME280;56604;48.652;9.194;2022-10-28T00:27:00;97068.50;;;15.46;71.88
69411;BME280;56604;48.652;9.194;2022-10-28T00:29:25;97067.44;;;15.47;71.44
69411;BME280;56604;48.652;9.194;2022-10-28T00:31:50;97071.41;;;15.44;71.65
69411;BME280;56604;48.652;9.194;2022-10-28T00:34:18;97070.03;;;15.37;71.80
69411;BME280;56604;48.652;9.194;2022-10-28T00:36:45;97073.22;;;15.34;71.96
69411;BME280;56604;48.652;9.194;2022-10-28T00:39:18;97066.88;;;15.35;72.02
69411;BME280;56604;48.652;9.194;2022-10-28T00:41:46;97066.84;;;15.29;72.39
69411;BME280;56604;48.652;9.194;2022-10-28T00:50:17;97073.47;;;15.27;73.42
69411;BME280;56604;48.652;9.194;2022-10-28T00:52:51;97070.00;;;15.21;73.76
69411;BME280;56604;48.652;9.194;2022-10-28T00:55:18;97068.66;;;15.19;73.88
69411;BME280;56604;48.652;9.194;2022-10-28T00:57:45;97075.25;;;15.16;73.89
69411;BME280;56604;48.652;9.194;2022-10-28T01:00:12;97069.16;;;15.16;74.05
69411;BME280;56604;48.652;9.194;2022-10-28T01:02:46;97060.91;;;15.07;74.64
69411;BME280;56604;48.652;9.194;2022-10-28T01:05:14;97069.41;;;15.09;74.51
69411;BME280;56604;48.652;9.194;2022-10-28T01:07:41;97064.16;;;15.14;74.28
69411;BME280;56604;48.652;9.194;2022-10-28T01:10:07;97070.00;;;15.21;73.76
69411;BME280;56604;48.652;9.194;2022-10-28T01:15:35;97064.97;;;15.25;74.33
69411;BME280;56604;48.652;9.194;2022-10-28T01:18:26;97061.28;;;15.26;74.47
69411;BME280;56604;48.652;9.194;2022-10-28T01:23:58;97058.09;;;15.24;74.07
69411;BME280;56604;48.652;9.194;2022-10-28T01:29:54;97046.16;;;15.21;73.94
69411;BME280;56604;48.652;9.194;2022-10-28T01:35:31;97050.13;;;15.24;73.73
69411;BME280;56604;48.652;9.194;2022-10-28T01:38:24;97054.09;;;15.21;73.40
69411;BME280;56604;48.652;9.194;2022-10-28T01:41:14;97049.56;;;15.17;73.77
69411;BME280;56604;48.652;9.194;2022-10-28T01:43:49;97044.84;;;15.24;73.35
69411;BME280;56604;48.652;9.194;2022-10-28T01:46:30;97045.09;;;15.27;73.14
69411;BME280;56604;48.652;9.194;2022-10-28T01:49:06;97057.03;;;15.20;73.01
69411;BME280;56604;48.652;9.194;2022-10-28T01:51:41;97047.75;;;15.27;72.79
69411;BME280;56604;48.652;9.194;2022-10-28T01:54:10;97052.78;;;15.24;73.12
69411;BME280;56604;48.652;9.194;2022-10-28T01:56:40;97049.88;;;15.25;72.84
69411;BME280;56604;48.652;9.194;2022-10-28T01:59:11;97043.47;;;15.16;73.21
69411;BME280;56604;48.652;9.194;2022-10-28T02:01:37;97044.00;;;15.13;73.05
69411;BME280;56604;48.652;9.194;2022-10-28T02:04:02;97042.16;;;15.19;72.94
69411;BME280;56604;48.652;9.194;2022-10-28T02:06:30;97043.50;;;15.21;72.89
69411;BME280;56604;48.652;9.194;2022-10-28T02:12:17;97038.69;;;15.13;72.95
69411;BME280;56604;48.652;9.194;2022-10-28T02:17:43;97034.97;;;15.09;72.60
69411;BME280;56604;48.652;9.194;2022-10-28T02:23:19;97037.09;;;15.12;72.25
69411;BME280;56604;48.652;9.194;2022-10-28T02:26:00;97033.66;;;15.17;71.96
69411;BME280;56604;48.652;9.194;2022-10-28T02:28:41;97026.78;;;15.16;71.54
69411;BME280;56604;48.652;9.194;2022-10-28T02:31:21;97027.06;;;15.19;71.49
69411;BME280;56604;48.652;9.194;2022-10-28T02:33:51;97030.53;;;15.25;71.07
69411;BME280;56604;48.652;9.194;2022-10-28T02:36:20;97032.66;;;15.23;71.38
69411;BME280;56604;48.652;9.194;2022-10-28T02:38:48;97033.72;;;15.27;71.12
69411;BME280;56604;48.652;9.194;2022-10-28T02:41:34;97020.72;;;15.20;71.32
69411;BME280;56604;48.652;9.194;2022-10-28T02:44:06;97018.06;;;15.15;71.31
69411;BME280;56604;48.652;9.194;2022-10-28T02:46:34;97015.41;;;15.15;71.39
69411;BME280;56604;48.652;9.194;2022-10-28T02:49:05;97013.78;;;15.09;71.43
69411;BME280;56604;48.652;9.194;2022-10-28T02:51:35;97008.50;;;15.09;71.41
69411;BME280;56604;48.652;9.194;2022-10-28T02:54:20;97016.19;;;15.16;71.11
69411;BME280;56604;48.652;9.194;2022-10-28T02:56:48;97016.19;;;15.16;70.79
69411;BME280;56604;48.652;9.194;2022-10-28T02:59:16;97019.13;;;15.14;71.26
69411;BME280;56604;48.652;9.194;2022-10-28T03:01:41;97024.69;;;15.18;70.75
69411;BME280;56604;48.652;9.194;2022-10-28T03:04:06;97015.41;;;15.15;71.08
69411;BME280;56604;48.652;9.194;2022-10-28T03:06:32;97033.41;;;15.13;70.55
69411;BME280;56604;48.652;9.194;2022-10-28T03:08:57;97028.63;;;15.10;71.16
69411;BME280;56604;48.652;9.194;2022-10-28T03:11:22;97021.72;;;15.09;71.53
69411;BME280;56604;48.652;9.194;2022-10-28T03:13:47;97023.88;;;15.12;71.23
69411;BME280;56604;48.652;9.194;2022-10-28T03:16:13;97023.84;;;15.07;72.13
69411;BME280;56604;48.652;9.194;2022-10-28T03:18:38;97031.81;;;15.12;71.87
69411;BME280;56604;48.652;9.194;2022-10-28T03:21:03;97023.31;;;15.10;71.88
69411;BME280;56604;48.652;9.194;2022-10-28T03:23:29;97022.00;;;15.13;72.16
69411;BME280;56604;48.652;9.194;2022-10-28T03:25:54;97014.84;;;15.13;72.23
69411;BME280;56604;48.652;9.194;2022-10-28T03:28:19;97018.06;;;15.20;71.98
69411;BME280;56604;48.652;9.194;2022-10-28T03:30:45;97012.78;;;15.20;71.90
69411;BME280;56604;48.652;9.194;2022-10-28T03:33:10;97020.22;;;15.28;71.37
69411;BME280;56604;48.652;9.194;2022-10-28T03:35:35;97019.69;;;15.37;71.18
69411;BME280;56604;48.652;9.194;2022-10-28T03:38:01;97015.50;;;15.46;70.43
69411;BME280;56604;48.652;9.194;2022-10-28T03:40:26;97003.84;;;15.47;70.34
69411;BME280;56604;48.652;9.194;2022-10-28T03:42:51;97021.91;;;15.55;70.42
69411;BME280;56604;48.652;9.194;2022-10-28T03:45:16;97015.00;;;15.59;69.89
69411;BME280;56604;48.652;9.194;2022-10-28T03:47:42;97013.97;;;15.60;69.94
69411;BME280;56604;48.652;9.194;2022-10-28T03:50:07;97013.41;;;15.58;69.88
69411;BME280;56604;48.652;9.194;2022-10-28T03:52:33;97016.34;;;15.67;69.44
69411;BME280;56604;48.652;9.194;2022-10-28T03:54:58;97016.34;;;15.67;69.23
69411;BME280;56604;48.652;9.194;2022-10-28T03:57:23;97011.06;;;15.67;69.56
69411;BME280;56604;48.652;9.194;2022-10-28T03:59:49;97007.91;;;15.70;69.10
69411;BME280;56604;48.652;9.194;2022-10-28T04:02:14;97006.34;;;15.74;69.21
69411;BME280;56604;48.652;9.194;2022-10-28T04:04:40;97006.06;;;15.81;68.76
69411;BME280;56604;48.652;9.194;2022-10-28T04:07:05;97004.75;;;15.83;68.35
69411;BME280;56604;48.652;9.194;2022-10-28T04:09:30;97006.06;;;15.81;68.47
69411;BME280;56604;48.652;9.194;2022-10-28T04:11:55;96998.66;;;15.83;68.73
69411;BME280;56604;48.652;9.194;2022-10-28T04:14:21;97007.13;;;15.90;68.37
69411;BME280;56604;48.652;9.194;2022-10-28T04:16:46;97009.53;;;15.86;68.34
69411;BME280;56604;48.652;9.194;2022-10-28T04:19:11;97006.06;;;15.81;68.60
69411;BME280;56604;48.652;9.194;2022-10-28T04:21:36;97006.63;;;15.83;68.97
69411;BME280;56604;48.652;9.194;2022-10-28T04:24:02;97005.28;;;15.80;68.55
69411;BME280;56604;48.652;9.194;2022-10-28T04:26:27;97006.06;;;15.81;68.84
69411;BME280;56604;48.652;9.194;2022-10-28T04:28:54;97007.41;;;15.83;68.66
69411;BME280;56604;48.652;9.194;2022-10-28T04:31:19;96998.13;;;15.91;67.63
69411;BME280;56604;48.652;9.194;2022-10-28T04:33:45;96994.44;;;15.97;67.37
69411;BME280;56604;48.652;9.194;2022-10-28T04:36:10;97001.84;;;16.00;66.84
69411;BME280;56604;48.652;9.194;2022-10-28T04:38:35;97002.91;;;16.09;66.02
69411;BME280;56604;48.652;9.194;2022-10-28T04:41:00;96992.81;;;16.16;65.77
69411;BME280;56604;48.652;9.194;2022-10-28T04:43:26;97000.25;;;16.25;65.53
69411;BME280;56604;48.652;9.194;2022-10-28T04:45:51;96996.78;;;16.19;66.06
69411;BME280;56604;48.652;9.194;2022-10-28T04:48:16;96984.34;;;16.19;66.27
69411;BME280;56604;48.652;9.194;2022-10-28T04:50:43;96991.78;;;16.17;66.10
69411;BME280;56604;48.652;9.194;2022-10-28T04:53:08;96986.72;;;16.21;66.40
69411;BME280;56604;48.652;9.194;2022-10-28T04:55:33;96990.72;;;16.29;65.45
69411;BME280;56604;48.652;9.194;2022-10-28T04:57:59;96989.09;;;16.28;65.55
69411;BME280;56604;48.652;9.194;2022-10-28T05:00:27;96986.97;;;16.30;65.40
69411;BME280;56604;48.652;9.194;2022-10-28T05:02:53;96989.63;;;16.25;65.69
69411;BME280;56604;48.652;9.194;2022-10-28T05:05:18;96989.63;;;16.25;65.37
69411;BME280;56604;48.652;9.194;2022-10-28T05:07:43;96997.63;;;16.19;65.59
69411;BME280;56604;48.652;9.194;2022-10-28T05:10:09;96993.34;;;16.24;65.22
69411;BME280;56604;48.652;9.194;2022-10-28T05:12:36;96992.81;;;16.16;65.78
69411;BME280;56604;48.652;9.194;2022-10-28T05:15:03;96996.81;;;16.14;65.60
69411;BME280;56604;48.652;9.194;2022-10-28T05:17:28;96995.75;;;16.10;65.87
69411;BME280;56604;48.652;9.194;2022-10-28T05:19:54;96993.38;;;16.03;65.96
69411;BME280;56604;48.652;9.194;2022-10-28T05:22:19;96990.69;;;15.98;66.19
69411;BME280;56604;48.652;9.194;2022-10-28T05:24:44;96981.16;;;16.02;65.95
69411;BME280;56604;48.652;9.194;2022-10-28T05:27:09;96978.25;;;16.04;65.60
69411;BME280;56604;48.652;9.194;2022-10-28T05:29:36;96973.47;;;16.01;65.79
69411;BME280;56604;48.652;9.194;2022-10-28T05:32:01;96979.03;;;16.04;65.73
69411;BME280;56604;48.652;9.194;2022-10-28T05:34:27;96979.84;;;16.00;66.18
69411;BME280;56604;48.652;9.194;2022-10-28T05:36:52;96973.47;;;15.85;66.24
69411;BME280;56604;48.652;9.194;2022-10-28T05:39:17;96970.00;;;15.85;66.66
69411;BME280;56604;48.652;9.194;2022-10-28T05:41:42;96978.78;;;15.80;66.77
69411;BME280;56604;48.652;9.194;2022-10-28T05:44:08;96973.19;;;15.87;66.34
69411;BME280;56604;48.652;9.194;2022-10-28T05:46:33;96972.41;;;15.86;65.85
69411;BME280;56604;48.652;9.194;2022-10-28T05:48:59;96971.06;;;15.99;68.32
69411;BME280;56604;48.652;9.194;2022-10-28T05:51:24;96980.66;;;16.05;69.08
69411;BME280;56604;48.652;9.194;2022-10-28T05:53:49;96979.84;;;16.15;68.85
69411;BME280;56604;48.652;9.194;2022-10-28T05:56:16;96979.56;;;16.01;65.83
69411;BME280;56604;48.652;9.194;2022-10-28T05:58:41;96978.22;;;15.93;65.62
69411;BME280;56604;48.652;9.194;2022-10-28T06:01:07;96986.19;;;15.99;65.61
69411;BME280;56604;48.652;9.194;2022-10-28T06:03:33;96983.81;;;15.97;65.16
69411;BME280;56604;48.652;9.194;2022-10-28T06:05:58;96982.22;;;16.01;65.50
69411;BME280;56604;48.652;9.194;2022-10-28T06:08:24;96980.91;;;16.04;64.98
69411;BME280;56604;48.652;9.194;2022-10-28T06:10:51;96984.06;;;16.01;65.29
69411;BME280;56604;48.652;9.194;2022-10-28T06:13:16;96976.91;;;16.06;64.85
69411;BME280;56604;48.652;9.194;2022-10-28T06:15:41;96987.28;;;16.03;65.18
69411;BME280;56604;48.652;9.194;2022-10-28T06:18:07;96994.44;;;15.97;65.18
69411;BME280;56604;48.652;9.194;2022-10-28T06:20:32;96996.53;;;15.90;65.23
69411;BME280;56604;48.652;9.194;2022-10-28T06:22:58;97002.91;;;15.89;64.70
69411;BME280;56604;48.652;9.194;2022-10-28T06:25:24;97010.88;;;15.94;64.12
69411;BME280;56604;48.652;9.194;2022-10-28T06:27:57;97012.44;;;15.90;64.15
69411;BME280;56604;48.652;9.194;2022-10-28T06:30:24;97010.06;;;15.93;63.83
69411;BME280;56604;48.652;9.194;2022-10-28T06:32:50;97005.56;;;15.89;63.79
69411;BME280;56604;48.652;9.194;2022-10-28T06:35:15;97001.84;;;15.95;63.32
69411;BME280;56604;48.652;9.194;2022-10-28T06:37:40;96999.19;;;16.00;63.10
69411;BME280;56604;48.652;9.194;2022-10-28T06:40:06;97002.91;;;16.09;62.62
69411;BME280;56604;48.652;9.194;2022-10-28T06:42:32;96998.16;;;16.11;63.04
69411;BME280;56604;48.652;9.194;2022-10-28T06:44:57;96989.38;;;16.16;62.22
69411;BME280;56604;48.652;9.194;2022-10-28T06:47:23;96994.44;;;16.17;62.14
69411;BME280;56604;48.652;9.194;2022-10-28T06:49:48;96992.28;;;16.30;61.92
69411;BME280;56604;48.652;9.194;2022-10-28T06:52:14;96992.28;;;16.35;61.66
69411;BME280;56604;48.652;9.194;2022-10-28T06:54:39;97002.63;;;16.47;60.78
69411;BME280;56604;48.652;9.194;2022-10-28T06:57:04;97003.94;;;16.54;60.83
69411;BME280;56604;48.652;9.194;2022-10-28T06:59:30;96992.25;;;16.55;60.15
69411;BME280;56604;48.652;9.194;2022-10-28T07:01:55;96995.69;;;16.66;59.62
69411;BME280;56604;48.652;9.194;2022-10-28T07:04:20;96991.69;;;16.74;59.71
69411;BME280;56604;48.652;9.194;2022-10-28T07:06:45;96987.44;;;16.83;58.88
69411;BME280;56604;48.652;9.194;2022-10-28T07:09:14;96982.91;;;16.94;58.54
69411;BME280;56604;48.652;9.194;2022-10-28T07:11:40;96984.72;;;17.03;58.25
69411;BME280;56604;48.652;9.194;2022-10-28T07:14:08;96986.69;;;17.37;56.00
69411;BME280;56604;48.652;9.194;2022-10-28T07:16:34;96986.59;;;17.52;55.77
69411;BME280;56604;48.652;9.194;2022-10-28T07:19:00;96987.09;;;17.60;55.20
69411;BME280;56604;48.652;9.194;2022-10-28T07:21:25;96988.63;;;17.71;55.55
69411;BME280;56604;48.652;9.194;2022-10-28T07:23:54;96993.97;;;17.71;56.58
69411;BME280;56604;48.652;9.194;2022-10-28T07:26:20;96999.28;;;17.71;56.03
69411;BME280;56604;48.652;9.194;2022-10-28T07:28:46;97004.47;;;17.96;56.45
69411;BME280;56604;48.652;9.194;2022-10-28T07:31:11;97004.88;;;18.09;56.52
69411;BME280;56604;48.652;9.194;2022-10-28T07:33:36;97014.19;;;18.11;56.79
69411;BME280;56604;48.652;9.194;2022-10-28T07:36:03;97011.28;;;18.08;55.73
69411;BME280;56604;48.652;9.194;2022-10-28T07:38:29;97023.06;;;18.02;56.12
69411;BME280;56604;48.652;9.194;2022-10-28T07:40:54;97017.81;;;17.86;57.53
69411;BME280;56604;48.652;9.194;2022-10-28T07:43:20;97019.44;;;17.77;58.97
69411;BME280;56604;48.652;9.194;2022-10-28T07:45:45;97013.63;;;17.70;59.79
69411;BME280;56604;48.652;9.194;2022-10-28T07:48:10;97013.63;;;17.70;59.85
69411;BME280;56604;48.652;9.194;2022-10-28T07:50:35;97013.69;;;17.60;60.42
69411;BME280;56604;48.652;9.194;2022-10-28T07:53:01;97015.72;;;17.73;59.35
69411;BME280;56604;48.652;9.194;2022-10-28T07:55:26;97011.47;;;17.82;59.22
69411;BME280;56604;48.652;9.194;2022-10-28T07:57:52;97016.25;;;17.80;58.35
69411;BME280;56604;48.652;9.194;2022-10-28T08:00:17;97017.78;;;17.91;58.39
69411;BME280;56604;48.652;9.194;2022-10-28T08:02:42;97015.34;;;17.95;57.98
69411;BME280;56604;48.652;9.194;2022-10-28T08:05:08;97024.34;;;18.04;57.72
69411;BME280;56604;48.652;9.194;2022-10-28T08:07:33;97026.66;;;18.16;56.41
69411;BME280;56604;48.652;9.194;2022-10-28T08:09:59;97026.94;;;18.14;55.74
69411;BME280;56604;48.652;9.194;2022-10-28T08:12:24;97027.63;;;18.30;55.41
69411;BME280;56604;48.652;9.194;2022-10-28T08:14:49;97024.84;;;18.40;55.28
69411;BME280;56604;48.652;9.194;2022-10-28T08:17:15;97029.47;;;18.30;55.50
69411;BME280;56604;48.652;9.194;2022-10-28T08:19:41;97028.72;;;18.24;55.50
69411;BME280;56604;48.652;9.194;2022-10-28T08:22:06;97028.22;;;18.22;55.84
69411;BME280;56604;48.652;9.194;2022-10-28T08:24:31;97022.03;;;18.27;55.77
69411;BME280;56604;48.652;9.194;2022-10-28T08:26:57;97015.91;;;18.26;56.11
69411;BME280;56604;48.652;9.194;2022-10-28T08:29:22;97024.03;;;18.11;56.16
69411;BME280;56604;48.652;9.194;2022-10-28T08:31:47;97027.75;;;18.10;55.49
69411;BME280;56604;48.652;9.194;2022-10-28T08:34:13;97026.69;;;18.11;56.36
69411;BME280;56604;48.652;9.194;2022-10-28T08:36:38;97029.34;;;18.16;56.07
69411;BME280;56604;48.652;9.194;2022-10-28T08:39:04;97034.59;;;18.21;56.20
69411;BME280;56604;48.652;9.194;2022-10-28T08:41:46;97030.88;;;18.22;56.55
69411;BME280;56604;48.652;9.194;2022-10-28T08:49:48;97024.47;;;18.52;55.14
69411;BME280;56604;48.652;9.194;2022-10-28T08:52:33;97032.31;;;18.73;55.42
69411;BME280;56604;48.652;9.194;2022-10-28T08:55:17;97023.34;;;18.93;54.84
69411;BME280;56604;48.652;9.194;2022-10-28T09:00:27;97011.88;;;19.35;53.29
69411;BME280;56604;48.652;9.194;2022-10-28T09:03:07;97019.66;;;19.74;52.82
69411;BME280;56604;48.652;9.194;2022-10-28T09:05:39;97022.34;;;19.74;52.57
69411;BME280;56604;48.652;9.194;2022-10-28T09:08:05;97026.81;;;19.98;52.18
69411;BME280;56604;48.652;9.194;2022-10-28T09:16:13;97022.47;;;20.54;50.22
69411;BME280;56604;48.652;9.194;2022-10-28T09:18:50;97031.19;;;20.59;51.02
69411;BME280;56604;48.652;9.194;2022-10-28T09:21:21;97043.19;;;20.76;49.87
69411;BME280;56604;48.652;9.194;2022-10-28T09:23:57;97047.66;;;20.80;50.81
69411;BME280;56604;48.652;9.194;2022-10-28T09:29:50;97054.97;;;20.75;50.62
69411;BME280;56604;48.652;9.194;2022-10-28T09:32:38;97061.63;;;20.91;51.46
69411;BME280;56604;48.652;9.194;2022-10-28T09:35:13;97045.28;;;20.79;50.21
69411;BME280;56604;48.652;9.194;2022-10-28T09:37:44;97048.84;;;20.88;49.95
69411;BME280;56604;48.652;9.194;2022-10-28T09:40:19;97043.72;;;20.78;49.61
69411;BME280;56604;48.652;9.194;2022-10-28T09:43:14;97049.69;;;21.30;49.54
69411;BME280;56604;48.652;9.194;2022-10-28T09:45:45;97041.16;;;21.42;49.36
69411;BME280;56604;48.652;9.194;2022-10-28T09:48:22;97038.66;;;21.59;49.80
69411;BME280;56604;48.652;9.194;2022-10-28T09:50:50;97031.66;;;21.49;49.53
69411;BME280;56604;48.652;9.194;2022-10-28T09:53:40;97041.94;;;21.28;50.10
69411;BME280;56604;48.652;9.194;2022-10-28T09:56:07;97043.28;;;21.81;50.95
69411;BME280;56604;48.652;9.194;2022-10-28T09:58:33;97042.16;;;22.32;50.63
69411;BME280;56604;48.652;9.194;2022-10-28T10:01:01;97033.63;;;22.30;48.12
69411;BME280;56604;48.652;9.194;2022-10-28T10:03:26;97036.22;;;22.44;49.10
69411;BME280;56604;48.652;9.194;2022-10-28T10:05:53;97028.47;;;22.65;47.11
69411;BME280;56604;48.652;9.194;2022-10-28T10:08:21;97024.44;;;23.16;46.69
69411;BME280;56604;48.652;9.194;2022-10-28T10:11:01;97032.53;;;23.33;46.48
69411;BME280;56604;48.652;9.194;2022-10-28T10:13:34;97036.09;;;23.69;46.70
69411;BME280;56604;48.652;9.194;2022-10-28T10:16:04;97041.34;;;24.17;44.26
69411;BME280;56604;48.652;9.194;2022-10-28T10:18:31;97030.91;;;24.59;43.70
69411;BME280;56604;48.652;9.194;2022-10-28T10:21:00;97033.22;;;24.69;44.01
69411;BME280;56604;48.652;9.194;2022-10-28T10:23:31;97036.91;;;24.39;43.23
69411;BME280;56604;48.652;9.194;2022-10-28T10:26:00;97033.59;;;24.24;43.93
69411;BME280;56604;48.652;9.194;2022-10-28T10:28:27;97039.31;;;24.14;44.98
69411;BME280;56604;48.652;9.194;2022-10-28T10:30:55;97036.63;;;24.14;46.30
69411;BME280;56604;48.652;9.194;2022-10-28T10:33:51;97045.94;;;24.26;46.99
69411;BME280;56604;48.652;9.194;2022-10-28T10:36:18;97044.19;;;23.86;47.54
69411;BME280;56604;48.652;9.194;2022-10-28T10:38:53;97040.09;;;23.89;47.08
69411;BME280;56604;48.652;9.194;2022-10-28T10:41:38;97036.28;;;23.98;46.30
69411;BME280;56604;48.652;9.194;2022-10-28T10:46:46;97041.38;;;24.00;45.26
69411;BME280;56604;48.652;9.194;2022-10-28T10:49:13;97049.44;;;24.00;44.47
69411;BME280;56604;48.652;9.194;2022-10-28T10:51:49;97035.84;;;24.05;43.68
69411;BME280;56604;48.652;9.194;2022-10-28T10:54:16;97019.22;;;23.68;43.89
69411;BME280;56604;48.652;9.194;2022-10-28T10:56:41;97022.69;;;23.03;45.73
69411;BME280;56604;48.652;9.194;2022-10-28T10:59:24;97024.00;;;23.23;52.99
69411;BME280;56604;48.652;9.194;2022-10-28T11:01:52;97016.31;;;23.39;50.29
69411;BME280;56604;48.652;9.194;2022-10-28T11:04:20;97033.53;;;23.55;49.68
69411;BME280;56604;48.652;9.194;2022-10-28T11:06:51;97020.50;;;23.71;48.38
69411;BME280;56604;48.652;9.194;2022-10-28T11:11:55;97015.78;;;23.85;47.61
69411;BME280;56604;48.652;9.194;2022-10-28T11:14:24;97015.56;;;23.64;45.59
69411;BME280;56604;48.652;9.194;2022-10-28T11:16:50;97012.44;;;23.97;46.01
69411;BME280;56604;48.652;9.194;2022-10-28T11:19:27;97006.91;;;23.85;45.31
69411;BME280;56604;48.652;9.194;2022-10-28T11:22:15;97001.66;;;24.32;46.32
69411;BME280;56604;48.652;9.194;2022-10-28T11:24:59;97006.59;;;24.04;44.33
69411;BME280;56604;48.652;9.194;2022-10-28T11:30:14;97022.09;;;23.98;45.90
69411;BME280;56604;48.652;9.194;2022-10-28T11:38:16;97005.00;;;23.02;50.33
69411;BME280;56604;48.652;9.194;2022-10-28T11:41:17;97004.03;;;22.66;50.20
69411;BME280;56604;48.652;9.194;2022-10-28T11:43:50;97007.53;;;22.76;50.05
69411;BME280;56604;48.652;9.194;2022-10-28T11:46:33;97007.38;;;23.03;48.17
69411;BME280;56604;48.652;9.194;2022-10-28T11:49:24;97004.38;;;23.05;46.73
69411;BME280;56604;48.652;9.194;2022-10-28T11:57:24;96987.25;;;22.83;47.50
69411;BME280;56604;48.652;9.194;2022-10-28T12:00:35;96981.59;;;22.62;48.38
69411;BME280;56604;48.652;9.194;2022-10-28T12:16:59;96933.81;;;22.56;50.17
69411;BME280;56604;48.652;9.194;2022-10-28T12:19:37;96940.53;;;22.44;50.58
69411;BME280;56604;48.652;9.194;2022-10-28T12:24:39;96941.03;;;22.47;48.93
69411;BME280;56604;48.652;9.194;2022-10-28T12:27:27;96949.19;;;22.41;49.88
69411;BME280;56604;48.652;9.194;2022-10-28T12:30:02;96948.88;;;22.34;51.58
69411;BME280;56604;48.652;9.194;2022-10-28T12:32:32;96946.03;;;22.39;51.94
69411;BME280;56604;48.652;9.194;2022-10-28T12:35:12;96945.88;;;22.36;52.57
69411;BME280;56604;48.652;9.194;2022-10-28T12:40:17;96944.38;;;22.21;54.21
69411;BME280;56604;48.652;9.194;2022-10-28T12:45:15;96931.19;;;22.33;54.08
69411;BME280;56604;48.652;9.194;2022-10-28T12:47:51;96931.19;;;22.33;54.23
69411;BME280;56604;48.652;9.194;2022-10-28T12:50:26;96932.16;;;22.37;53.66
69411;BME280;56604;48.652;9.194;2022-10-28T12:55:37;96939.09;;;22.38;52.35
69411;BME280;56604;48.652;9.194;2022-10-28T13:00:42;96935.28;;;22.71;51.59
69411;BME280;56604;48.652;9.194;2022-10-28T13:03:13;96931.97;;;22.74;51.00
69411;BME280;56604;48.652;9.194;2022-10-28T13:11:33;96935.63;;;22.78;51.16
69411;BME280;56604;48.652;9.194;2022-10-28T13:14:22;96941.09;;;22.95;51.09
69411;BME280;56604;48.652;9.194;2022-10-28T13:23:05;96944.56;;;22.96;51.02
69411;BME280;56604;48.652;9.194;2022-10-28T13:28:14;96937.00;;;23.06;49.18
69411;BME280;56604;48.652;9.194;2022-10-28T13:30:58;96940.28;;;22.95;50.28
69411;BME280;56604;48.652;9.194;2022-10-28T13:33:28;96939.03;;;23.01;52.01
69411;BME280;56604;48.652;9.194;2022-10-28T13:36:06;96943.94;;;23.07;50.79
69411;BME280;56604;48.652;9.194;2022-10-28T13:38:33;96944.28;;;23.06;51.37
69411;BME280;56604;48.652;9.194;2022-10-28T13:49:22;96931.06;;;22.78;51.22
69411;BME280;56604;48.652;9.194;2022-10-28T13:51:49;96936.44;;;22.87;49.84
69411;BME280;56604;48.652;9.194;2022-10-28T13:54:23;96940.66;;;22.71;50.93
69411;BME280;56604;48.652;9.194;2022-10-28T13:56:50;96945.16;;;22.53;51.80
69411;BME280;56604;48.652;9.194;2022-10-28T13:59:21;96937.59;;;22.55;52.26
69411;BME280;56604;48.652;9.194;2022-10-28T14:01:55;96935.38;;;22.57;51.77
69411;BME280;56604;48.652;9.194;2022-10-28T14:04:37;96933.69;;;22.61;51.92
69411;BME280;56604;48.652;9.194;2022-10-28T14:09:35;96932.38;;;22.89;51.77
69411;BME280;56604;48.652;9.194;2022-10-28T14:12:14;96921.53;;;23.03;51.91
69411;BME280;56604;48.652;9.194;2022-10-28T14:15:05;96931.53;;;23.20;51.33
69411;BME280;56604;48.652;9.194;2022-10-28T14:17:46;96936.25;;;23.23;51.69
69411;BME280;56604;48.652;9.194;2022-10-28T14:20:21;96930.91;;;23.41;49.93
69411;BME280;56604;48.652;9.194;2022-10-28T14:22:47;96937.19;;;23.27;49.53
69411;BME280;56604;48.652;9.194;2022-10-28T14:33:40;96949.84;;;23.35;48.85
69411;BME280;56604;48.652;9.194;2022-10-28T14:39:15;96953.16;;;23.32;49.02
69411;BME280;56604;48.652;9.194;2022-10-28T14:50:15;96969.97;;;23.07;50.15
69411;BME280;56604;48.652;9.194;2022-10-28T14:52:43;96972.44;;;22.95;50.43
69411;BME280;56604;48.652;9.194;2022-10-28T14:55:20;96972.88;;;22.88;50.97
69411;BME280;56604;48.652;9.194;2022-10-28T14:57:46;96964.75;;;23.02;50.08
69411;BME280;56604;48.652;9.194;2022-10-28T15:00:20;96969.25;;;22.84;50.78
69411;BME280;56604;48.652;9.194;2022-10-28T15:02:46;96971.25;;;22.38;51.42
69411;BME280;56604;48.652;9.194;2022-10-28T15:05:21;96968.34;;;22.26;51.44
69411;BME280;56604;48.652;9.194;2022-10-28T15:07:49;96974.38;;;22.09;51.76
69411;BME280;56604;48.652;9.194;2022-10-28T15:10:21;96970.09;;;22.31;51.21
69411;BME280;56604;48.652;9.194;2022-10-28T15:12:47;96959.47;;;22.48;50.18
69411;BME280;56604;48.652;9.194;2022-10-28T15:15:17;96961.41;;;22.56;50.02
69411;BME280;56604;48.652;9.194;2022-10-28T15:17:42;96955.25;;;22.56;49.87
69411;BME280;56604;48.652;9.194;2022-10-28T15:22:47;96955.53;;;22.45;49.77
69411;BME280;56604;48.652;9.194;2022-10-28T15:25:15;96956.13;;;22.42;50.60
69411;BME280;56604;48.652;9.194;2022-10-28T15:27:42;96950.31;;;22.40;50.18
69411;BME280;56604;48.652;9.194;2022-10-28T15:30:17;96954.81;;;22.31;50.36